Time;durP1;ratioP1;P1;durP2;ratioP2;P2;SDS_P1;SDS_P2;PMS_P1;PMS_P2;Temp;Humidity;BMP_temperature;BMP_pressure;BME280_temperature;BME280_humidity;BME280_pressure;Samples;Min_cycle;Max_cycle;Signal;HPM_P1;HPM_P2
2021/06/02 00:01:58;;;;;;;8.90;5.30;;;333.50;2329.60;;;;;;5036968;28;20463;-57
2021/06/02 00:04:26;;;;;;;14.48;5.60;;;333.60;2329.60;;;;;;5036827;28;20494;-57
2021/06/02 00:06:59;;;;;;;7.57;5.55;;;333.60;2329.60;;;;;;5036763;28;20049;-57
2021/06/02 00:09:26;;;;;;;8.13;5.55;;;333.60;2304.00;;;;;;5036576;28;20034;-57
2021/06/02 00:11:55;;;;;;;9.05;5.47;;;333.50;2304.00;;;;;;5036626;28;20026;-57
2021/06/02 00:14:23;;;;;;;10.88;5.60;;;333.40;2304.00;;;;;;5036594;28;20383;-58
2021/06/02 00:16:50;;;;;;;7.82;5.35;;;333.30;2304.00;;;;;;5036467;28;20121;-58
2021/06/02 00:19:17;;;;;;;9.55;5.55;;;333.30;2304.00;;;;;;5036671;28;20072;-58
2021/06/02 00:21:43;;;;;;;9.48;5.68;;;333.30;2329.60;;;;;;5036460;28;20104;-58
2021/06/02 00:24:09;;;;;;;7.95;5.07;;;333.30;2329.60;;;;;;5036625;28;20029;-58
2021/06/02 00:26:36;;;;;;;9.90;5.63;;;333.20;2329.60;;;;;;5036556;28;20025;-57
2021/06/02 00:29:08;;;;;;;11.65;5.28;;;333.20;2329.60;;;;;;5036298;28;20037;-57
2021/06/02 00:31:36;;;;;;;12.18;5.40;;;333.20;2329.60;;;;;;5036395;28;20490;-58
2021/06/02 00:34:04;;;;;;;10.60;5.18;;;333.10;2329.60;;;;;;5036220;28;20032;-58
2021/06/02 00:36:30;;;;;;;12.30;5.80;;;333.10;2329.60;;;;;;5035910;28;20053;-58
2021/06/02 00:38:57;;;;;;;9.25;5.30;;;333.10;2329.60;;;;;;5036164;28;20018;-59
2021/06/02 00:41:23;;;;;;;10.48;5.90;;;333.10;2329.60;;;;;;5036236;28;20104;-58
2021/06/02 00:43:49;;;;;;;11.32;6.07;;;333.00;2329.60;;;;;;5035871;28;20391;-58
2021/06/02 00:46:15;;;;;;;11.93;5.72;;;332.90;2329.60;;;;;;5035763;28;20127;-57
2021/06/02 00:48:44;;;;;;;11.10;5.82;;;332.90;2329.60;;;;;;5035773;28;20041;-58
2021/06/02 00:51:11;;;;;;;8.52;5.30;;;333.00;2329.60;;;;;;5036034;28;20495;-58
2021/06/02 00:53:37;;;;;;;8.32;5.10;;;332.90;2329.60;;;;;;5035712;28;20056;-59
2021/06/02 00:56:06;;;;;;;8.40;5.30;;;332.90;2329.60;;;;;;5033798;28;20119;-57
2021/06/02 00:58:37;;;;;;;11.38;5.47;;;332.80;2329.60;;;;;;5035653;28;20471;-58
2021/06/02 01:01:05;;;;;;;11.18;5.57;;;308.10;2304.00;;;;;;5035321;28;20475;-58
2021/06/02 01:03:34;;;;;;;9.48;5.43;;;308.10;2304.00;;;;;;5035231;28;20029;-58
2021/06/02 01:06:01;;;;;;;8.32;5.38;;;308.00;2304.00;;;;;;5035732;28;20021;-58
2021/06/02 01:08:30;;;;;;;8.57;5.60;;;308.00;2304.00;;;;;;5034317;28;20033;-58
2021/06/02 01:10:56;;;;;;;8.18;5.80;;;308.00;2304.00;;;;;;5035448;28;20099;-58
2021/06/02 01:13:23;;;;;;;10.10;5.88;;;307.90;2304.00;;;;;;5035238;28;20429;-58
2021/06/02 01:15:51;;;;;;;13.30;5.80;;;307.70;2304.00;;;;;;5034061;28;20075;-58
2021/06/02 01:18:17;;;;;;;9.52;5.28;;;307.70;2304.00;;;;;;5035637;28;20100;-58
2021/06/02 01:20:44;;;;;;;9.18;5.80;;;307.70;2304.00;;;;;;5035656;28;20143;-58
2021/06/02 01:23:11;;;;;;;8.70;5.55;;;307.70;2304.00;;;;;;5035412;28;20032;-58
2021/06/02 01:25:38;;;;;;;10.60;5.88;;;307.70;2304.00;;;;;;5035195;28;20131;-58
2021/06/02 01:28:04;;;;;;;12.27;5.70;;;307.70;2304.00;;;;;;5035011;28;20022;-57
2021/06/02 01:30:31;;;;;;;9.10;5.70;;;307.70;2304.00;;;;;;5035017;28;20049;-58
2021/06/02 01:32:56;;;;;;;10.52;5.35;;;307.70;2304.00;;;;;;5034930;28;20467;-58
2021/06/02 01:35:31;;;;;;;11.52;5.43;;;307.70;2304.00;;;;;;5035070;28;20061;-59
2021/06/02 01:38:42;;;;;;;9.57;5.70;;;307.70;2304.00;;;;;;5035058;28;20029;-58
2021/06/02 01:41:41;;;;;;;8.45;5.30;;;307.70;2304.00;;;;;;5035091;28;20259;-58
2021/06/02 01:44:56;;;;;;;9.60;5.70;;;307.70;2304.00;;;;;;5034806;28;20029;-57
2021/06/02 01:47:24;;;;;;;8.95;5.60;;;307.70;2304.00;;;;;;5033551;28;20378;-58
2021/06/02 01:50:17;;;;;;;9.20;5.43;;;307.70;2304.00;;;;;;5034714;28;20056;-58
2021/06/02 01:53:11;;;;;;;8.25;5.63;;;307.70;2304.00;;;;;;5034870;28;20076;-58
2021/06/02 01:56:14;;;;;;;9.65;5.90;;;307.70;2304.00;;;;;;5034751;28;20021;-58
2021/06/02 01:59:17;;;;;;;11.52;6.10;;;307.80;2304.00;;;;;;5034593;28;20036;-58
2021/06/02 02:02:11;;;;;;;9.18;5.40;;;307.80;2304.00;;;;;;5034469;28;20479;-58
2021/06/02 02:05:10;;;;;;;7.35;5.30;;;307.70;2304.00;;;;;;5034639;28;20040;-58
2021/06/02 02:07:36;;;;;;;9.35;5.28;;;307.70;2304.00;;;;;;5034401;28;20025;-58
2021/06/02 02:10:29;;;;;;;8.50;5.03;;;307.70;2304.00;;;;;;5034244;28;20037;-58
2021/06/02 02:13:03;;;;;;;9.43;5.30;;;307.70;2304.00;;;;;;5033895;28;20021;-58
2021/06/02 02:15:54;;;;;;;8.15;4.78;;;307.70;2304.00;;;;;;5034290;28;20029;-58
2021/06/02 02:18:31;;;;;;;10.73;4.80;;;307.60;2304.00;;;;;;5034207;28;20026;-58
2021/06/02 02:21:16;;;;;;;6.63;4.57;;;307.60;2304.00;;;;;;5034349;28;20025;-58
2021/06/02 02:23:56;;;;;;;7.35;4.88;;;307.60;2304.00;;;;;;5034220;28;20030;-58
2021/06/02 02:26:46;;;;;;;5.88;4.60;;;307.60;2304.00;;;;;;5034143;28;20026;-58
2021/06/02 02:29:33;;;;;;;8.85;4.72;;;307.60;2304.00;;;;;;5033786;28;20029;-58
2021/06/02 02:32:36;;;;;;;8.20;5.13;;;307.60;2304.00;;;;;;5033821;28;20539;-58
2021/06/02 02:35:25;;;;;;;8.60;5.00;;;307.50;2304.00;;;;;;5034033;28;20021;-59
2021/06/02 02:37:55;;;;;;;6.82;4.82;;;307.50;2304.00;;;;;;5033596;28;20074;-58
2021/06/02 02:41:03;;;;;;;5.55;4.40;;;307.40;2304.00;;;;;;5033817;28;20028;-58
2021/06/02 02:43:58;;;;;;;8.18;4.55;;;307.40;2304.00;;;;;;5033830;28;20475;-58
2021/06/02 02:46:39;;;;;;;14.45;4.80;;;307.40;2304.00;;;;;;5032445;28;20025;-58
2021/06/02 02:49:46;;;;;;;10.23;4.70;;;307.30;2304.00;;;;;;5032694;28;20095;-58
2021/06/02 02:52:44;;;;;;;8.07;4.88;;;307.30;2304.00;;;;;;4992308;28;20522;-58
2021/06/02 02:55:10;;;;;;;8.35;5.07;;;307.30;2304.00;;;;;;4992622;28;20567;-59
2021/06/02 02:58:17;;;;;;;10.15;5.63;;;307.40;2304.00;;;;;;4992251;28;20113;-58
2021/06/02 03:01:07;;;;;;;9.35;5.03;;;307.40;2304.00;;;;;;4934320;29;20039;-58
2021/06/02 03:03:41;;;;;;;8.80;4.90;;;307.30;2304.00;;;;;;4934304;29;20031;-58
2021/06/02 03:06:38;;;;;;;8.13;5.28;;;307.30;2304.00;;;;;;4934453;29;20544;-59
2021/06/02 03:09:27;;;;;;;8.18;4.65;;;307.30;2304.00;;;;;;4934171;29;20063;-58
2021/06/02 03:12:17;;;;;;;8.18;5.18;;;307.30;2304.00;;;;;;4934223;29;20044;-58
2021/06/02 03:14:56;;;;;;;9.45;5.40;;;307.30;2304.00;;;;;;4934072;29;20495;-58
2021/06/02 03:17:24;;;;;;;7.28;4.97;;;307.30;2304.00;;;;;;4934102;29;20079;-58
2021/06/02 03:20:25;;;;;;;7.95;4.97;;;307.40;2304.00;;;;;;4934211;29;20036;-58
2021/06/02 03:22:53;;;;;;;12.05;5.72;;;307.40;2304.00;;;;;;4931176;29;20031;-59
2021/06/02 03:25:47;;;;;;;10.20;5.07;;;307.50;2304.00;;;;;;4942649;28;20035;-58
2021/06/02 03:28:30;;;;;;;10.93;5.43;;;307.50;2304.00;;;;;;4976406;28;20042;-58
2021/06/02 03:31:11;;;;;;;12.82;6.82;;;307.40;2304.00;;;;;;4994970;28;20112;-58
2021/06/02 03:33:45;;;;;;;20.60;11.05;;;307.50;2304.00;;;;;;5037402;28;20529;-59
2021/06/02 03:36:33;;;;;;;24.27;12.77;;;307.50;2304.00;;;;;;5037055;28;20136;-59
2021/06/02 03:39:04;;;;;;;18.65;11.32;;;307.50;2304.00;;;;;;5037098;28;20486;-59
2021/06/02 03:42:08;;;;;;;26.50;15.18;;;307.60;2304.00;;;;;;5037472;28;20025;-59
2021/06/02 03:45:14;;;;;;;27.85;17.95;;;307.60;2304.00;;;;;;4956886;29;20054;-58
2021/06/02 03:47:43;;;;;;;21.38;13.68;;;307.60;2304.00;;;;;;4899718;29;20028;-59
2021/06/02 03:50:18;;;;;;;18.58;12.13;;;307.70;2304.00;;;;;;4899664;29;20036;-58
2021/06/02 03:53:19;;;;;;;23.23;15.02;;;307.80;2304.00;;;;;;4899879;29;20542;-59
2021/06/02 03:56:18;;;;;;;31.90;20.50;;;307.90;2304.00;;;;;;4899720;29;20064;-58
2021/06/02 03:59:14;;;;;;;19.05;11.75;;;307.90;2304.00;;;;;;4899629;29;20044;-59
2021/06/02 04:01:42;;;;;;;16.50;11.68;;;308.00;2304.00;;;;;;4899492;29;20032;-59
2021/06/02 04:05:02;;;;;;;18.20;11.50;;;308.00;2304.00;;;;;;4899503;29;20104;-58
2021/06/02 04:07:41;;;;;;;14.18;8.45;;;308.10;2304.00;;;;;;4843882;29;20034;-58
2021/06/02 04:10:14;;;;;;;10.95;6.68;;;332.80;2329.60;;;;;;4843724;29;20054;-58
2021/06/02 04:13:20;;;;;;;10.57;6.43;;;332.80;2329.60;;;;;;4843358;29;20034;-59
2021/06/02 04:15:48;;;;;;;9.57;6.10;;;332.90;2329.60;;;;;;4843637;29;20042;-58
2021/06/02 04:18:18;;;;;;;8.93;5.78;;;333.00;2304.00;;;;;;4843385;29;20049;-57
2021/06/02 04:20:45;;;;;;;10.00;6.15;;;333.10;2304.00;;;;;;4901503;29;20036;-58
2021/06/02 04:23:14;;;;;;;9.15;6.55;;;333.20;2304.00;;;;;;4902296;29;20165;-58
2021/06/02 04:25:41;;;;;;;11.65;6.68;;;333.20;2278.40;;;;;;4937018;29;20028;-58
2021/06/02 04:28:08;;;;;;;12.00;7.47;;;333.30;2278.40;;;;;;4936920;29;20091;-58
2021/06/02 04:30:38;;;;;;;10.45;6.10;;;333.40;2252.80;;;;;;4936908;29;20047;-58
2021/06/02 04:33:05;;;;;;;9.60;6.05;;;333.50;2252.80;;;;;;4936797;29;20622;-58
2021/06/02 04:35:31;;;;;;;10.88;6.10;;;333.60;2227.20;;;;;;4936785;29;20062;-58
2021/06/02 04:37:59;;;;;;;8.63;5.80;;;333.60;2227.20;;;;;;4936792;29;20374;-58
2021/06/02 04:40:24;;;;;;;11.95;6.80;;;333.70;2201.60;;;;;;4939844;28;20043;-58
2021/06/02 04:42:51;;;;;;;12.25;7.18;;;358.40;2201.60;;;;;;4975241;28;20039;-59
2021/06/02 04:45:24;;;;;;;10.43;6.40;;;358.50;2201.60;;;;;;4975071;28;20041;-58
2021/06/02 04:47:51;;;;;;;7.80;5.25;;;358.50;2176.00;;;;;;4975167;28;20034;-58
2021/06/02 04:50:35;;;;;;;7.70;5.63;;;358.50;2150.40;;;;;;5021693;28;20044;-59
2021/06/02 04:53:37;;;;;;;9.20;4.95;;;358.60;2176.00;;;;;;5035946;28;20037;-60
2021/06/02 04:56:53;;;;;;;9.13;5.07;;;358.70;2124.80;;;;;;5035827;28;20026;-58
2021/06/02 04:59:22;;;;;;;8.35;5.30;;;358.80;2176.00;;;;;;4994349;28;20125;-58
2021/06/02 05:02:11;;;;;;;8.52;5.63;;;358.80;2124.80;;;;;;4994156;28;20523;-58
2021/06/02 05:04:55;;;;;;;10.15;6.15;;;358.90;2099.20;;;;;;4993989;28;20031;-58
2021/06/02 05:07:40;;;;;;;7.20;5.17;;;359.00;2099.20;;;;;;4994231;28;20523;-59
2021/06/02 05:10:27;;;;;;;7.82;5.07;;;359.10;2048.00;;;;;;4994091;28;20110;-59
2021/06/02 05:13:12;;;;;;;8.95;4.97;;;359.10;2022.40;;;;;;4993573;28;20038;-59
2021/06/02 05:15:41;;;;;;;7.72;5.05;;;359.20;2022.40;;;;;;4993763;28;20109;-58
2021/06/02 05:18:25;;;;;;;8.05;5.20;;;359.30;1996.80;;;;;;4977555;28;20026;-59
2021/06/02 05:23:53;;;;;;;7.65;4.82;;;384.10;1971.20;;;;;;4994082;28;20334;-59
2021/06/02 05:26:52;;;;;;;10.25;4.20;;;384.20;1971.20;;;;;;4993954;28;20030;-59
2021/06/02 05:29:52;;;;;;;8.15;4.38;;;384.30;1971.20;;;;;;4993578;28;20395;-59
2021/06/02 05:32:33;;;;;;;8.02;4.25;;;384.50;1945.60;;;;;;4993646;28;20048;-59
2021/06/02 05:35:22;;;;;;;12.02;5.57;;;384.70;1894.40;;;;;;5020436;28;20112;-58
2021/06/02 05:38:07;;;;;;;9.07;6.78;;;384.70;1945.60;;;;;;5035205;28;20029;-58
2021/06/02 05:40:41;;;;;;;11.02;5.90;;;384.90;1894.40;;;;;;5035201;28;20029;-58
2021/06/02 05:43:16;;;;;;;6.30;4.30;;;409.60;1945.60;;;;;;5034954;28;20072;-58
2021/06/02 05:46:02;;;;;;;7.80;4.17;;;409.70;1945.60;;;;;;5034834;28;20029;-58
2021/06/02 05:49:03;;;;;;;9.38;4.20;;;409.80;1894.40;;;;;;5034298;28;20830;-59
2021/06/02 05:51:53;;;;;;;7.22;3.97;;;409.90;1868.80;;;;;;5035243;28;20029;-59
2021/06/02 05:54:49;;;;;;;7.15;4.20;;;410.00;1894.40;;;;;;5034855;28;20060;-59
2021/06/02 05:57:21;;;;;;;7.88;3.65;;;410.10;1843.20;;;;;;5034594;28;20013;-59
2021/06/02 06:00:09;;;;;;;5.93;3.80;;;410.20;1817.60;;;;;;5034643;28;20036;-59
2021/06/02 06:03:05;;;;;;;7.13;3.60;;;410.20;1792.00;;;;;;5034757;28;20044;-59
2021/06/02 06:05:57;;;;;;;10.38;4.43;;;410.50;1843.20;;;;;;5034472;28;20033;-60
2021/06/02 06:08:54;;;;;;;7.57;4.10;;;435.20;1894.40;;;;;;5034323;28;20387;-59
2021/06/02 06:11:41;;;;;;;6.00;4.30;;;435.40;1894.40;;;;;;5034546;28;20025;-59
2021/06/02 06:14:42;;;;;;;5.57;4.07;;;435.40;1971.20;;;;;;5034160;28;20109;-59
2021/06/02 06:17:14;;;;;;;9.25;4.38;;;435.50;1945.60;;;;;;4992808;28;20022;-59
2021/06/02 06:20:03;;;;;;;5.00;4.00;;;435.60;1945.60;;;;;;4992744;28;20030;-59
2021/06/02 06:23:01;;;;;;;7.78;4.30;;;435.80;1894.40;;;;;;4993063;28;20030;-59
2021/06/02 06:25:55;;;;;;;7.18;3.50;;;435.80;1868.80;;;;;;4934799;29;20501;-58
2021/06/02 06:28:40;;;;;;;7.68;3.50;;;436.00;1843.20;;;;;;4934772;29;20044;-59
2021/06/02 06:31:13;;;;;;;5.53;3.67;;;436.10;1792.00;;;;;;4934851;29;20127;-59
2021/06/02 06:33:40;;;;;;;4.63;3.08;;;460.80;1792.00;;;;;;4934777;29;20023;-59
2021/06/02 06:36:09;;;;;;;5.38;3.42;;;461.00;1766.40;;;;;;4934415;29;20071;-59
2021/06/02 06:39:02;;;;;;;6.13;3.17;;;461.10;1740.80;;;;;;4934857;29;20366;-59
2021/06/02 06:41:30;;;;;;;6.90;3.15;;;461.10;1715.20;;;;;;4934801;29;20048;-59
2021/06/02 06:43:58;;;;;;;6.03;3.20;;;461.20;1715.20;;;;;;4934534;29;20124;-59
2021/06/02 06:46:25;;;;;;;6.07;3.20;;;461.30;1689.60;;;;;;4934562;29;20102;-59
2021/06/02 06:48:54;;;;;;;8.07;4.50;;;461.40;1664.00;;;;;;4934471;29;20402;-59
2021/06/02 06:51:22;;;;;;;6.90;4.28;;;461.40;1638.40;;;;;;4957452;28;20500;-59
2021/06/02 06:53:50;;;;;;;5.47;3.33;;;461.60;1612.80;;;;;;4973003;28;20489;-59
2021/06/02 06:56:18;;;;;;;6.95;3.58;;;461.70;1612.80;;;;;;4972826;28;20023;-59
2021/06/02 06:58:45;;;;;;;8.70;4.43;;;486.40;1689.60;;;;;;4972712;28;20055;-59
2021/06/02 07:01:14;;;;;;;7.25;4.22;;;486.60;1664.00;;;;;;5006697;28;20065;-59
2021/06/02 07:03:41;;;;;;;8.05;4.45;;;486.70;1587.20;;;;;;5033681;28;20022;-59
2021/06/02 07:06:07;;;;;;;7.82;3.58;;;486.70;1587.20;;;;;;5033134;28;20037;-60
2021/06/02 07:08:34;;;;;;;5.43;2.95;;;486.80;1587.20;;;;;;5033699;28;20033;-59
2021/06/02 07:11:00;;;;;;;7.82;3.17;;;486.90;1612.80;;;;;;5033720;28;20037;-59
2021/06/02 07:13:27;;;;;;;6.32;3.15;;;487.10;1612.80;;;;;;5033606;28;20048;-59
2021/06/02 07:15:55;;;;;;;3.92;2.97;;;487.20;1612.80;;;;;;5033478;28;20037;-59
2021/06/02 07:18:23;;;;;;;4.20;2.58;;;512.00;1561.60;;;;;;5032271;28;20083;-59
2021/06/02 07:20:51;;;;;;;6.80;2.90;;;512.10;1484.80;;;;;;5033627;28;20034;-59
2021/06/02 07:23:18;;;;;;;5.03;3.08;;;512.20;1484.80;;;;;;5033354;28;20025;-59
2021/06/02 07:25:44;;;;;;;4.95;2.85;;;512.40;1433.60;;;;;;5032980;28;20071;-59
2021/06/02 07:28:13;;;;;;;12.20;3.35;;;512.50;1459.20;;;;;;5033019;28;20021;-59
2021/06/02 07:30:39;;;;;;;7.65;3.00;;;512.70;1459.20;;;;;;5033464;28;20042;-59
2021/06/02 07:33:06;;;;;;;5.25;2.83;;;512.80;1408.00;;;;;;5033577;28;20064;-59
2021/06/02 07:35:32;;;;;;;5.25;2.75;;;512.90;1356.80;;;;;;5033221;28;20128;-59
2021/06/02 07:37:57;;;;;;;8.65;2.85;;;512.90;1382.40;;;;;;5033084;28;20502;-59
2021/06/02 07:40:23;;;;;;;7.20;2.80;;;537.70;1408.00;;;;;;5033449;28;20032;-59
2021/06/02 07:42:49;;;;;;;6.10;2.90;;;537.80;1433.60;;;;;;5032060;28;20407;-59
2021/06/02 07:45:16;;;;;;;10.05;3.42;;;537.90;1433.60;;;;;;5033053;28;20029;-59
2021/06/02 07:47:42;;;;;;;5.35;3.10;;;538.00;1382.40;;;;;;5033224;28;20026;-59
2021/06/02 07:50:09;;;;;;;3.85;2.85;;;538.10;1433.60;;;;;;5033091;28;20503;-59
2021/06/02 07:52:35;;;;;;;6.28;2.88;;;538.20;1408.00;;;;;;5033342;28;20022;-59
2021/06/02 07:55:01;;;;;;;4.95;3.10;;;538.30;1331.20;;;;;;5033404;28;20041;-60
2021/06/02 07:57:26;;;;;;;6.72;3.20;;;538.10;1382.40;;;;;;5033029;28;20100;-59
2021/06/02 07:59:52;;;;;;;5.15;3.35;;;538.10;1408.00;;;;;;5033168;28;20029;-60
2021/06/02 08:02:18;;;;;;;4.65;3.17;;;538.30;1433.60;;;;;;5033024;28;20021;-59
2021/06/02 08:04:43;;;;;;;5.43;3.30;;;538.40;1408.00;;;;;;5032577;28;20112;-59
2021/06/02 08:07:10;;;;;;;5.07;2.63;;;563.20;1433.60;;;;;;5033020;28;20047;-59
2021/06/02 08:09:36;;;;;;;5.85;3.00;;;563.30;1382.40;;;;;;5031858;28;20033;-59
2021/06/02 08:12:05;;;;;;;5.25;2.75;;;563.50;1356.80;;;;;;5035514;28;20108;-59
2021/06/02 08:14:32;;;;;;;4.60;3.20;;;563.60;1331.20;;;;;;5034906;28;20045;-60
2021/06/02 08:16:58;;;;;;;5.15;3.00;;;563.50;1331.20;;;;;;5036428;28;20033;-59
2021/06/02 08:19:24;;;;;;;5.53;2.90;;;563.50;1382.40;;;;;;5035473;28;20029;-60
2021/06/02 08:21:50;;;;;;;5.57;3.00;;;563.50;1305.60;;;;;;5036363;28;20506;-59
2021/06/02 08:24:16;;;;;;;4.53;3.00;;;563.70;1331.20;;;;;;5035060;28;20034;-59
2021/06/02 08:26:45;;;;;;;5.20;2.80;;;563.80;1280.00;;;;;;5036453;28;20574;-59
2021/06/02 08:29:11;;;;;;;6.07;2.90;;;564.00;1280.00;;;;;;5036376;28;20095;-59
2021/06/02 08:31:36;;;;;;;6.75;2.70;;;564.10;1280.00;;;;;;5036360;28;20410;-60
2021/06/02 08:34:03;;;;;;;4.10;2.80;;;564.00;1203.20;;;;;;5036290;28;20121;-59
2021/06/02 08:36:29;;;;;;;3.97;2.00;;;564.10;1254.40;;;;;;5036132;28;20057;-60
2021/06/02 08:38:55;;;;;;;5.10;2.30;;;588.90;1126.40;;;;;;5036124;28;20033;-59
2021/06/02 08:41:21;;;;;;;5.25;2.30;;;589.10;1126.40;;;;;;5035940;28;20033;-59
2021/06/02 08:43:48;;;;;;;3.50;2.30;;;589.20;1126.40;;;;;;5036118;28;20022;-59
2021/06/02 08:46:15;;;;;;;4.90;2.60;;;589.40;1126.40;;;;;;5035943;28;20025;-59
2021/06/02 08:48:51;;;;;;;5.82;2.40;;;589.50;1126.40;;;;;;5035804;28;20021;-58
2021/06/02 08:51:20;;;;;;;4.90;2.45;;;589.60;1049.60;;;;;;5045146;28;20490;-59
2021/06/02 08:53:50;;;;;;;5.80;2.40;;;589.60;1075.20;;;;;;5053240;28;20526;-58
2021/06/02 08:56:16;;;;;;;6.85;2.20;;;589.70;1049.60;;;;;;5053147;28;20032;-58
2021/06/02 08:58:43;;;;;;;3.88;2.20;;;614.50;972.80;;;;;;5046604;28;20456;-58
2021/06/02 09:01:09;;;;;;;3.55;2.20;;;614.60;947.20;;;;;;5021696;28;20038;-59
2021/06/02 09:03:35;;;;;;;6.20;2.17;;;614.70;921.60;;;;;;5032034;28;20029;-58
2021/06/02 09:06:06;;;;;;;2.22;1.90;;;614.70;921.60;;;;;;5033246;28;20467;-58
2021/06/02 09:08:34;;;;;;;2.97;2.13;;;614.80;947.20;;;;;;5033440;28;20048;-58
2021/06/02 09:11:19;;;;;;;4.78;1.80;;;615.20;921.60;;;;;;5032832;28;20029;-58
2021/06/02 09:13:46;;;;;;;3.22;1.92;;;615.30;921.60;;;;;;5032592;28;20029;-58
2021/06/02 09:16:32;;;;;;;3.13;2.05;;;615.30;896.00;;;;;;5032413;28;20033;-60
2021/06/02 09:19:09;;;;;;;4.30;2.30;;;615.30;921.60;;;;;;5032719;28;20410;-58
2021/06/02 09:21:38;;;;;;;6.68;2.58;;;640.10;921.60;;;;;;5032365;28;20033;-60
2021/06/02 09:24:05;;;;;;;3.92;2.20;;;640.40;896.00;;;;;;5031805;28;20439;-58
2021/06/02 09:26:31;;;;;;;3.90;2.20;;;640.40;896.00;;;;;;5032663;28;20032;-60
2021/06/02 09:29:09;;;;;;;3.75;2.13;;;640.30;768.00;;;;;;5033068;28;20033;-58
2021/06/02 09:31:40;;;;;;;4.07;1.98;;;640.40;768.00;;;;;;5035046;28;20033;-58
2021/06/02 09:34:06;;;;;;;3.58;2.00;;;640.80;819.20;;;;;;5034930;28;20029;-58
2021/06/02 09:36:40;;;;;;;2.58;1.95;;;640.80;768.00;;;;;;5033063;28;20087;-59
2021/06/02 09:39:10;;;;;;;3.08;1.98;;;640.90;768.00;;;;;;5033628;28;20048;-59
2021/06/02 09:41:47;;;;;;;2.65;1.80;;;665.70;768.00;;;;;;5034238;28;20029;-58
2021/06/02 09:44:22;;;;;;;6.50;2.20;;;665.60;768.00;;;;;;5034807;28;20048;-58
2021/06/02 09:47:04;;;;;;;4.03;1.80;;;666.20;768.00;;;;;;5034094;28;20454;-58
2021/06/02 09:49:47;;;;;;;3.08;2.00;;;665.90;742.40;;;;;;5032731;28;20356;-58
2021/06/02 09:52:13;;;;;;;4.07;2.13;;;640.90;742.40;;;;;;5034427;28;20438;-58
2021/06/02 09:54:39;;;;;;;3.10;1.88;;;640.60;742.40;;;;;;5034215;28;20032;-58
2021/06/02 09:57:13;;;;;;;3.67;1.95;;;640.80;716.80;;;;;;5034424;28;20021;-58
2021/06/02 09:59:58;;;;;;;3.38;1.70;;;640.60;768.00;;;;;;5034558;28;20139;-59
2021/06/02 10:02:25;;;;;;;4.43;1.88;;;640.40;716.80;;;;;;5033947;28;20045;-59
2021/06/02 10:05:01;;;;;;;3.50;1.90;;;640.40;768.00;;;;;;5031424;28;20025;-59
2021/06/02 10:07:27;;;;;;;4.97;1.85;;;640.80;768.00;;;;;;5031875;28;20042;-58
2021/06/02 10:09:53;;;;;;;3.33;1.92;;;640.90;742.40;;;;;;5030757;28;20064;-58
2021/06/02 10:12:19;;;;;;;3.35;2.10;;;665.90;793.60;;;;;;5032019;28;20029;-59
2021/06/02 10:14:56;;;;;;;3.60;2.10;;;666.40;819.20;;;;;;5031506;28;20025;-60
2021/06/02 10:17:28;;;;;;;3.38;1.83;;;691.20;742.40;;;;;;5031587;28;20037;-59
2021/06/02 10:19:54;;;;;;;4.68;1.85;;;691.20;716.80;;;;;;5031289;28;20483;-58
2021/06/02 10:22:20;;;;;;;3.50;1.90;;;666.20;716.80;;;;;;5032480;28;20101;-59
2021/06/02 10:24:48;;;;;;;4.43;1.92;;;666.50;742.40;;;;;;5033980;28;20096;-59
2021/06/02 10:27:14;;;;;;;3.72;1.80;;;666.40;691.20;;;;;;5033883;28;20100;-59
2021/06/02 10:29:41;;;;;;;4.55;1.98;;;691.20;691.20;;;;;;5034352;28;20501;-59
2021/06/02 10:32:07;;;;;;;3.40;2.10;;;691.20;716.80;;;;;;5033224;28;20025;-59
2021/06/02 10:34:33;;;;;;;2.92;1.83;;;691.60;691.20;;;;;;5043223;28;20029;-59
2021/06/02 10:36:59;;;;;;;3.53;1.70;;;691.30;640.00;;;;;;5047451;28;20159;-59
2021/06/02 10:39:27;;;;;;;3.53;2.00;;;666.20;691.20;;;;;;5033364;28;20055;-59
2021/06/02 10:42:00;;;;;;;5.43;2.13;;;666.20;742.40;;;;;;5030906;28;20034;-59
2021/06/02 10:44:35;;;;;;;4.20;2.30;;;666.30;768.00;;;;;;5031912;28;20083;-59
2021/06/02 10:47:02;;;;;;;3.72;1.95;;;640.50;768.00;;;;;;5032570;28;20038;-59
2021/06/02 10:49:36;;;;;;;5.00;2.10;;;665.60;768.00;;;;;;5033169;28;20117;-59
2021/06/02 10:52:03;;;;;;;3.80;2.20;;;640.60;819.20;;;;;;5032502;28;20025;-59
2021/06/02 10:54:40;;;;;;;2.83;2.10;;;640.50;768.00;;;;;;5033283;28;20072;-59
2021/06/02 10:57:15;;;;;;;5.47;2.10;;;640.90;793.60;;;;;;5015360;28;20439;-59
2021/06/02 10:59:48;;;;;;;5.10;2.00;;;665.90;768.00;;;;;;5031478;28;20029;-59
2021/06/02 11:02:17;;;;;;;7.90;1.85;;;666.30;768.00;;;;;;5032345;28;20394;-59
2021/06/02 11:04:55;;;;;;;2.42;1.90;;;691.50;742.40;;;;;;5050129;28;20086;-60
2021/06/02 11:07:27;;;;;;;3.88;1.90;;;691.60;665.60;;;;;;5050138;28;20059;-60
2021/06/02 11:10:05;;;;;;;2.33;1.73;;;691.90;691.20;;;;;;5031468;28;20045;-59
2021/06/02 11:12:48;;;;;;;3.15;1.90;;;716.80;691.20;;;;;;5050654;28;20021;-60
2021/06/02 11:15:48;;;;;;;3.67;1.90;;;717.00;665.60;;;;;;5031836;28;20033;-59
2021/06/02 11:18:19;;;;;;;3.58;1.70;;;717.30;665.60;;;;;;5043047;28;20044;-58
2021/06/02 11:20:58;;;;;;;5.38;2.30;;;717.40;640.00;;;;;;5011002;28;20033;-59
2021/06/02 11:23:44;;;;;;;4.45;1.90;;;717.10;640.00;;;;;;5011300;28;20029;-59
2021/06/02 11:26:28;;;;;;;3.45;1.98;;;717.30;640.00;;;;;;5010354;28;20515;-60
2021/06/02 11:28:55;;;;;;;2.72;1.80;;;717.30;691.20;;;;;;4992990;28;20132;-59
2021/06/02 11:31:27;;;;;;;3.05;1.73;;;717.10;716.80;;;;;;5011007;28;20038;-59
2021/06/02 11:34:13;;;;;;;4.82;1.90;;;691.90;665.60;;;;;;5011372;28;20032;-60
2021/06/02 11:36:58;;;;;;;3.30;1.80;;;691.80;716.80;;;;;;5010593;28;20053;-59
2021/06/02 11:39:24;;;;;;;3.08;1.90;;;691.80;716.80;;;;;;5010758;28;20026;-60
2021/06/02 11:41:50;;;;;;;3.13;1.80;;;691.80;691.20;;;;;;5010678;28;20030;-60
2021/06/02 11:44:17;;;;;;;3.75;1.80;;;691.50;716.80;;;;;;5013037;28;20467;-60
2021/06/02 11:46:49;;;;;;;2.33;1.85;;;691.60;691.20;;;;;;4995674;28;20054;-60
2021/06/02 11:49:36;;;;;;;3.08;2.10;;;691.60;691.20;;;;;;5016561;28;20034;-60
2021/06/02 11:52:10;;;;;;;7.57;2.00;;;691.60;691.20;;;;;;5017231;28;20022;-60
2021/06/02 11:54:47;;;;;;;5.10;2.00;;;691.70;716.80;;;;;;5016841;28;20029;-60
2021/06/02 11:57:32;;;;;;;2.90;1.92;;;691.80;691.20;;;;;;5015213;28;20036;-60
2021/06/02 12:00:00;;;;;;;3.13;1.70;;;691.60;691.20;;;;;;5014781;28;20450;-60
2021/06/02 12:02:26;;;;;;;3.47;1.90;;;691.50;716.80;;;;;;5014360;28;20018;-61
2021/06/02 12:04:52;;;;;;;3.67;2.40;;;691.20;716.80;;;;;;5015974;28;20044;-61
2021/06/02 12:07:23;;;;;;;2.90;1.83;;;666.40;742.40;;;;;;5016995;28;20480;-61
2021/06/02 12:09:53;;;;;;;3.60;1.80;;;666.40;768.00;;;;;;5015918;28;20119;-60
2021/06/02 12:12:19;;;;;;;2.83;1.85;;;691.20;742.40;;;;;;5016482;28;20026;-60
2021/06/02 12:14:58;;;;;;;3.20;2.15;;;691.20;742.40;;;;;;5016605;28;20112;-59
2021/06/02 12:17:30;;;;;;;4.15;1.90;;;691.70;742.40;;;;;;5049279;28;20052;-60
2021/06/02 12:19:57;;;;;;;4.43;1.85;;;691.70;742.40;;;;;;5055020;28;20079;-60
2021/06/02 12:22:24;;;;;;;4.82;1.90;;;691.70;691.20;;;;;;5054997;28;20032;-60
2021/06/02 12:25:17;;;;;;;2.58;1.73;;;691.90;716.80;;;;;;5054941;28;20525;-60
2021/06/02 12:27:47;;;;;;;3.40;1.90;;;691.70;716.80;;;;;;5055201;28;20025;-60
2021/06/02 12:30:13;;;;;;;2.78;1.73;;;691.70;691.20;;;;;;5051284;28;20047;-60
2021/06/02 12:32:51;;;;;;;4.13;1.90;;;691.50;665.60;;;;;;5050499;28;20366;-60
2021/06/02 12:35:34;;;;;;;2.40;1.90;;;691.40;716.80;;;;;;5050296;28;20044;-60
2021/06/02 12:38:00;;;;;;;3.63;1.65;;;691.30;716.80;;;;;;5051258;28;20045;-60
2021/06/02 12:40:26;;;;;;;3.65;1.70;;;691.30;716.80;;;;;;5054413;28;20474;-60
2021/06/02 12:42:52;;;;;;;5.40;1.92;;;691.30;742.40;;;;;;5036439;28;20056;-60
2021/06/02 12:45:25;;;;;;;3.42;1.85;;;691.30;742.40;;;;;;5054379;28;20020;-60
2021/06/02 12:47:51;;;;;;;2.35;1.63;;;666.50;742.40;;;;;;5036271;28;20025;-60
2021/06/02 12:50:46;;;;;;;4.53;1.83;;;691.20;768.00;;;;;;5054147;28;20071;-60
2021/06/02 12:53:14;;;;;;;3.50;1.77;;;691.20;742.40;;;;;;5044669;28;20017;-60
2021/06/02 12:55:46;;;;;;;3.15;1.98;;;666.40;742.40;;;;;;5033640;28;20041;-60
2021/06/02 12:58:14;;;;;;;4.07;2.00;;;666.20;742.40;;;;;;5046172;28;20017;-60
2021/06/02 13:00:46;;;;;;;2.88;2.10;;;666.10;768.00;;;;;;5054952;28;20025;-59
2021/06/02 13:03:19;;;;;;;4.03;2.05;;;666.10;742.40;;;;;;5055105;28;20023;-60